Cooksville, IL (61730)

4:37 PM CDT on September 04, 2015 (GMT -0500)
Rural Cooksville | | Change Station
CLOSE
Current Station
Personal Weather Station
Location: Cooksville, IL
Elevation: 801 ft
Nearby Weather Stations

Elev 801 ft 40.52 °N, 88.72 °W | Updated 1 minute ago

Partly Cloudy
Partly Cloudy
91.5 °F
Feels Like 99 °F
N
1.0
Wind Variable Wind from West
Gusts 3.0 mph

Today
High -- | Low -- °F
--% Chance of Precip.
Yesterday
High -- | Low -- °F
Precip. -- in
6:24 AM 7:22 PM
Waning Gibbous, 56% visible
Pressure 29.95 in
Visibility 10.0 miles
Clouds Few 5500 ft
Heat Index 99 °F
Dew Point 72 °F
Humidity 53%
Rainfall 0.00 in
Snow Depth Not available.
UV 4 out of 12
Pollen 10.30 out of 12
Air Quality Not available.
Flu Activity Not available.
METAR KBMI 042056Z 00000KT 10SM FEW055 34/20 A3000 RMK AO2 56013 T03440200 SLP142
Pressure 29.95 in
Visibility 10.0 miles
Clouds Few 5500 ft
Heat Index 99 °F
Dew Point 72 °F
Humidity 53%
Rainfall 0.00 in
Snow Depth Not available.
UV 4 out of 12
Pollen 10.30 out of 12
Air Quality Not available.
Flu Activity Not available.
METAR KBMI 042056Z 00000KT 10SM FEW055 34/20 A3000 RMK AO2 56013 T03440200 SLP142

10-Day Weather Forecast

×

Almanac

Astronomy

Sep. 04, 2015 Rise Set
Actual Time
Civil Twilight
Nautical Twilight
Astronomical Twilight
Moon
Length of Visible Light
Length of Day
Tomorrow will be .
, % of the Moon is Illuminated

Today's Extremes

State Highs State Lows

Community

WunderPhotos

Upload Photos

1,852,297 photos uploaded!

WunderBlogs® & News

Nearby

Air Quality

  Air Quality AQ Index Pollutant
Not available.

Snow Depth

Station Depth Elevation

Earthquake Activity

City Distance Mag. Time & Date
Minimum magnitude displayed is 2.5.

Coastal Water Temperatures

Place Temperature

Stations

Nearby Weather Stations

Station Location Temp. Windchill Dew Point Humidity Wind Precip. Elev Updated Type